Flight Track Log - Related Links

Times and Time Zones

All times are in EDT time to prevent confusion due to time zone crossing. See the ACA289 flight status page for this flight to view local times or setup timezone preferences in your user account.

Time Position Orientation Groundspeed Altitude Reporting Facility
EDT Latitude Longitude Course Direction KTS MPH feet Rate Location/Type
Thu 01:55:06 PM 49.1667 -123.2167 338° Northwest 150 173 600  Level Vancouver Center
Thu 01:56:06 PM 49.1833 -123.2833 291° West 190 219 2,100 2,050 Climbing Vancouver Center
Thu 01:57:06 PM 49.2000 -123.3667 287° West 220 253 4,700 2,250 Climbing Vancouver Center
Thu 01:58:00 PM 49.3731 -123.3731 327° Northwest  Level FlightAware Approximate
Thu 01:58:06 PM 49.2667 -123.3833 351° North 270 311 6,600  Level Vancouver Center
Thu 01:59:00 PM 49.4784 -123.4627 333° Northwest  Level FlightAware Approximate
Thu 01:59:06 PM 49.3500 -123.3667 North 290 334 9,500  Level Vancouver Center
Thu 02:00:00 PM 49.5846 -123.5486 338° Northwest  Level FlightAware Approximate
Thu 02:00:06 PM 49.4333 -123.3333 15° North 320 368 11,000  Level Vancouver Center
Thu 02:01:06 PM 49.5167 -123.3833 339° North 350 403 13,100 2,400 Climbing Vancouver Center
Thu 02:02:06 PM 49.6167 -123.4667 332° Northwest 360 414 15,800 2,250 Climbing Vancouver Center
Thu 02:03:06 PM 49.7000 -123.5167 339° North 370 426 17,600 1,850 Climbing Vancouver Center
Thu 02:04:06 PM 49.8000 -123.6000 332° Northwest 390 449 19,500 1,750 Climbing Vancouver Center
Thu 02:05:06 PM 49.9000 -123.6667 337° Northwest 400 460 21,100 1,700 Climbing Vancouver Center
Thu 02:06:06 PM 50.0167 -123.7500 335° Northwest 410 472 22,900 1,600 Climbing Vancouver Center
Thu 02:07:06 PM 50.1167 -123.8167 337° Northwest 420 483 24,300 1,400 Climbing Vancouver Center
Thu 02:08:06 PM 50.2333 -123.9000 335° Northwest 430 495 25,700 1,300 Climbing Vancouver Center
Thu 02:09:06 PM 50.3333 -123.9833 332° Northwest 440 506 26,900 1,100 Climbing Vancouver Center
Thu 02:10:06 PM 50.4500 -124.0667 336° Northwest 450 518 27,900 1,150 Climbing Vancouver Center
Thu 02:11:06 PM 50.5667 -124.1333 340° North 450 518 29,200 1,350 Climbing Vancouver Center
Thu 02:12:06 PM 50.6833 -124.2167 336° Northwest 450 518 30,600 1,250 Climbing Vancouver Center
Thu 02:13:06 PM 50.8000 -124.3000 336° Northwest 440 506 31,700 1,000 Climbing Vancouver Center
Thu 02:14:06 PM 50.9000 -124.3833 332° Northwest 440 506 32,600 950 Climbing Vancouver Center
Thu 02:15:06 PM 51.0167 -124.4667 336° Northwest 440 506 33,600 950 Climbing Vancouver Center
Thu 02:16:06 PM 51.1167 -124.5500 332° Northwest 440 506 34,500 800 Climbing Vancouver Center
Thu 02:17:06 PM 51.2333 -124.6167 340° North 430 495 35,200 550 Climbing Vancouver Center
Thu 02:18:06 PM 51.3333 -124.7000 333° Northwest 430 495 35,600 400 Climbing Vancouver Center
Thu 02:19:06 PM 51.4500 -124.7833 336° Northwest 440 506 36,000 200 Climbing Vancouver Center
Thu 02:20:06 PM 51.5667 -124.8667 336° Northwest 440 506 36,000  Level Vancouver Center
Thu 02:21:06 PM 51.6833 -124.9833 328° Northwest 460 529 36,000  Level Vancouver Center
Thu 02:22:06 PM 51.8000 -125.0667 336° Northwest 450 518 36,000  Level Vancouver Center
Thu 02:23:06 PM 51.9167 -125.1500 336° Northwest 460 529 36,000  Level Vancouver Center
Thu 02:24:06 PM 52.0333 -125.2333 336° Northwest 460 529 36,000  Level Vancouver Center
Thu 02:25:06 PM 52.1500 -125.3167 336° Northwest 450 518 36,000  Level Vancouver Center
Thu 02:26:06 PM 52.2667 -125.4333 329° Northwest 460 529 36,000  Level Vancouver Center
Thu 02:27:06 PM 52.3667 -125.5167 333° Northwest 450 518 36,000  Level Vancouver Center
Thu 02:28:06 PM 52.5000 -125.6000 339° North 450 518 36,000  Level Vancouver Center
Thu 02:29:06 PM 52.6000 -125.7000 329° Northwest 450 518 36,000  Level Vancouver Center
Thu 02:30:06 PM 52.7167 -125.7833 337° Northwest 450 518 36,000  Level Vancouver Center
Thu 02:31:06 PM 52.8333 -125.8667 337° Northwest 450 518 36,000  Level Vancouver Center
Thu 02:32:06 PM 52.9333 -125.9500 333° Northwest 440 506 36,000  Level Vancouver Center
Thu 02:33:06 PM 53.0333 -126.0500 329° Northwest 450 518 36,000  Level Vancouver Center
Thu 02:34:06 PM 53.1500 -126.1333 337° Northwest 450 518 36,000  Level Vancouver Center
Thu 02:35:06 PM 53.2667 -126.2500 329° Northwest 450 518 36,000  Level Vancouver Center
Thu 02:36:06 PM 53.3833 -126.3500 333° Northwest 450 518 36,000  Level Vancouver Center
Thu 02:37:06 PM 53.4833 -126.4333 334° Northwest 450 518 36,000  Level Vancouver Center
Thu 02:38:06 PM 53.6000 -126.5333 333° Northwest 450 518 36,000  Level Vancouver Center
Thu 02:39:06 PM 53.7167 -126.6167 337° Northwest 450 518 36,000  Level Vancouver Center
Thu 02:40:06 PM 53.8333 -126.7167 333° Northwest 440 506 36,000  Level Vancouver Center
Thu 02:41:06 PM 53.9500 -126.8000 337° Northwest 450 518 36,000  Level Vancouver Center
Thu 02:42:06 PM 54.0333 -126.9000 325° Northwest 450 518 36,000  Level Vancouver Center
Thu 02:43:06 PM 54.1500 -126.9833 337° Northwest 450 518 36,000  Level Vancouver Center
Thu 02:44:06 PM 54.2667 -127.0833 333° Northwest 450 518 36,000  Level Vancouver Center
Thu 02:45:06 PM 54.3833 -127.2000 330° Northwest 450 518 36,000  Level Vancouver Center
Thu 02:46:06 PM 54.4833 -127.3000 330° Northwest 450 518 36,000  Level Vancouver Center
Thu 02:47:06 PM 54.6000 -127.4000 334° Northwest 450 518 36,000  Level Vancouver Center
Thu 02:48:06 PM 54.7167 -127.5000 334° Northwest 460 529 36,000  Level Vancouver Center
Thu 02:49:06 PM 54.8167 -127.5833 334° Northwest 450 518 36,000  Level Vancouver Center
Thu 02:50:06 PM 54.9167 -127.6833 330° Northwest 450 518 36,000  Level Vancouver Center
Thu 02:51:06 PM 55.0333 -127.7833 334° Northwest 450 518 36,000  Level Vancouver Center
Thu 02:52:06 PM 55.1500 -127.8833 334° Northwest 440 506 36,000  Level Vancouver Center
Thu 02:53:06 PM 55.2667 -127.9833 334° Northwest 440 506 36,000  Level Vancouver Center
Thu 02:54:06 PM 55.3500 -128.0833 326° Northwest 430 495 36,000  Level Vancouver Center
Thu 02:55:06 PM 55.4667 -128.1833 334° Northwest 430 495 36,000  Level Vancouver Center
Thu 02:56:06 PM 55.5833 -128.2833 334° Northwest 440 506 36,000  Level Vancouver Center
Thu 02:57:06 PM 55.6833 -128.3833 331° Northwest 440 506 36,000  Level Vancouver Center
Thu 02:58:06 PM 55.8000 -128.5167 327° Northwest 440 506 36,000  Level Vancouver Center
Thu 02:59:06 PM 55.9000 -128.6167 331° Northwest 450 518 36,000  Level Vancouver Center
Thu 03:00:06 PM 56.0167 -128.7167 334° Northwest 450 518 36,000  Level Vancouver Center
Thu 03:01:06 PM 56.1167 -128.8167 331° Northwest 460 529 36,000  Level Vancouver Center
Thu 03:02:06 PM 56.2500 -128.9333 334° Northwest 440 506 36,000  Level Vancouver Center
Thu 03:03:06 PM 56.3333 -129.0333 326° Northwest 450 518 36,000  Level Vancouver Center
Thu 03:04:06 PM 56.4500 -129.1333 335° Northwest 440 506 36,000  Level Vancouver Center
Thu 03:05:06 PM 56.5500 -129.2333 331° Northwest 440 506 36,000  Level Vancouver Center
Thu 03:06:06 PM 56.6667 -129.3500 331° Northwest 450 518 36,000  Level Vancouver Center
Thu 03:07:06 PM 56.7667 -129.4500 331° Northwest 440 506 36,000  Level Vancouver Center
Thu 03:08:06 PM 56.8667 -129.5833 324° Northwest 430 495 36,000  Level Vancouver Center
Thu 03:09:06 PM 56.9667 -129.7000 328° Northwest 430 495 36,000  Level Vancouver Center
Thu 03:10:06 PM 57.0500 -129.8333 319° Northwest 430 495 36,000  Level Vancouver Center
Thu 03:11:06 PM 57.1500 -129.9333 332° Northwest 430 495 36,000  Level Vancouver Center
Thu 03:13:00 PM 57.3210 -130.1777 322° Northwest  Level FlightAware Approximate
Thu 03:20:00 PM 57.9470 -131.0978 322° Northwest  Level FlightAware Approximate
Thu 03:21:00 PM 58.0358 -131.2319 321° Northwest  Level FlightAware Approximate
Thu 03:22:00 PM 58.1246 -131.3666 321° Northwest  Level FlightAware Approximate
Thu 03:23:00 PM 58.2131 -131.5020 321° Northwest  Level FlightAware Approximate
Thu 03:24:00 PM 58.3016 -131.6381 321° Northwest  Level FlightAware Approximate
Thu 03:25:00 PM 58.3899 -131.7749 321° Northwest  Level FlightAware Approximate
Thu 03:26:00 PM 58.4780 -131.9123 321° Northwest  Level FlightAware Approximate
Thu 03:27:00 PM 58.5660 -132.0505 321° Northwest  Level FlightAware Approximate
Thu 03:28:00 PM 58.6539 -132.1893 321° Northwest  Level FlightAware Approximate
Thu 03:29:00 PM 58.7416 -132.3289 320° Northwest  Level FlightAware Approximate
Thu 03:30:00 PM 58.8291 -132.4691 320° Northwest  Level FlightAware Approximate
Thu 03:31:00 PM 58.9183 -132.6052 328° Northwest  Level FlightAware Approximate
Thu 03:32:00 PM 59.0140 -132.7246 325° Northwest  Level FlightAware Approximate
Thu 03:33:00 PM 59.1074 -132.8510 325° Northwest  Level FlightAware Approximate
Thu 03:34:00 PM 59.2006 -132.9781 325° Northwest  Level FlightAware Approximate
Thu 03:35:00 PM 59.2928 -133.1086 324° Northwest  Level FlightAware Approximate
Thu 03:36:00 PM 59.3870 -133.2337 328° Northwest  Level FlightAware Approximate
Thu 03:37:00 PM 59.4805 -133.3609 325° Northwest  Level FlightAware Approximate
Thu 03:38:00 PM 59.5736 -133.4900 325° Northwest  Level FlightAware Approximate
Thu 03:39:00 PM 59.6683 -133.6175 319° Northwest  Level FlightAware Approximate
Thu 03:40:00 PM 59.7541 -133.7658 319° Northwest  Level FlightAware Approximate
Thu 03:41:00 PM 59.8393 -133.9157 318° Northwest  Level FlightAware Approximate
Thu 03:42:00 PM 59.9241 -134.0667 318° Northwest  Level FlightAware Approximate
Thu 03:43:00 PM 60.0088 -134.2186 318° Northwest  Level FlightAware Approximate
Thu 03:44:00 PM 60.0933 -134.3712 318° Northwest  Level FlightAware Approximate
Thu 03:45:00 PM 60.1815 -134.5155 321° Northwest  Level FlightAware Approximate
Thu 03:46:00 PM 60.2668 -134.6668 315° West  Level FlightAware Approximate
Thu 03:47:00 PM 60.3580 -134.7942 342° North  Level FlightAware Approximate
Thu 03:48:00 PM 60.4652 -134.8710 339° North  Level FlightAware Approximate

Login

Don't have an account? Register now (free) for customized features, flight alerts, and more!